sensor_id;sensor_type;location;lat;lon;timestamp;P1;durP1;ratioP1;P2;durP2;ratioP2
12356;SDS011;6243;51.244;6.774;2024-03-23T00:55:23;9.93;;;5.10;;
12356;SDS011;6243;51.244;6.774;2024-03-23T00:57:49;13.63;;;5.90;;
12356;SDS011;6243;51.244;6.774;2024-03-23T01:00:15;9.27;;;5.37;;
12356;SDS011;6243;51.244;6.774;2024-03-23T01:02:41;12.67;;;5.60;;
12356;SDS011;6243;51.244;6.774;2024-03-23T01:05:06;12.13;;;5.77;;
12356;SDS011;6243;51.244;6.774;2024-03-23T01:07:32;17.07;;;5.67;;
12356;SDS011;6243;51.244;6.774;2024-03-23T01:09:59;6.67;;;4.43;;
12356;SDS011;6243;51.244;6.774;2024-03-23T01:12:25;9.20;;;4.40;;
12356;SDS011;6243;51.244;6.774;2024-03-23T01:14:50;9.97;;;5.00;;
12356;SDS011;6243;51.244;6.774;2024-03-23T01:17:16;11.77;;;4.20;;
12356;SDS011;6243;51.244;6.774;2024-03-23T01:19:42;11.97;;;4.83;;
12356;SDS011;6243;51.244;6.774;2024-03-23T01:22:07;7.33;;;3.20;;
12356;SDS011;6243;51.244;6.774;2024-03-23T01:24:33;7.70;;;3.57;;
12356;SDS011;6243;51.244;6.774;2024-03-23T01:27:00;6.50;;;2.23;;
12356;SDS011;6243;51.244;6.774;2024-03-23T01:29:26;3.77;;;1.67;;
12356;SDS011;6243;51.244;6.774;2024-03-23T01:31:51;4.87;;;1.67;;
12356;SDS011;6243;51.244;6.774;2024-03-23T01:34:17;3.13;;;1.50;;
12356;SDS011;6243;51.244;6.774;2024-03-23T01:36:43;4.50;;;1.80;;
12356;SDS011;6243;51.244;6.774;2024-03-23T01:39:08;3.93;;;1.47;;
12356;SDS011;6243;51.244;6.774;2024-03-23T01:41:34;2.40;;;1.47;;
12356;SDS011;6243;51.244;6.774;2024-03-23T01:44:01;3.67;;;1.50;;
12356;SDS011;6243;51.244;6.774;2024-03-23T01:46:30;3.30;;;1.40;;
12356;SDS011;6243;51.244;6.774;2024-03-23T01:48:56;3.87;;;1.57;;
12356;SDS011;6243;51.244;6.774;2024-03-23T01:51:22;6.87;;;2.17;;
12356;SDS011;6243;51.244;6.774;2024-03-23T01:53:48;5.00;;;2.17;;
12356;SDS011;6243;51.244;6.774;2024-03-23T01:56:14;6.80;;;1.97;;
12356;SDS011;6243;51.244;6.774;2024-03-23T01:58:40;5.60;;;1.97;;
12356;SDS011;6243;51.244;6.774;2024-03-23T02:01:07;4.27;;;1.80;;
12356;SDS011;6243;51.244;6.774;2024-03-23T02:03:33;5.93;;;2.07;;
12356;SDS011;6243;51.244;6.774;2024-03-23T02:05:58;5.33;;;1.50;;
12356;SDS011;6243;51.244;6.774;2024-03-23T02:08:24;4.70;;;1.70;;
12356;SDS011;6243;51.244;6.774;2024-03-23T02:10:50;5.77;;;1.90;;
12356;SDS011;6243;51.244;6.774;2024-03-23T02:13:17;5.97;;;1.67;;
12356;SDS011;6243;51.244;6.774;2024-03-23T02:15:44;5.40;;;1.83;;
12356;SDS011;6243;51.244;6.774;2024-03-23T02:18:11;5.33;;;1.90;;
12356;SDS011;6243;51.244;6.774;2024-03-23T02:20:37;3.77;;;1.57;;
12356;SDS011;6243;51.244;6.774;2024-03-23T02:23:04;4.97;;;2.00;;
12356;SDS011;6243;51.244;6.774;2024-03-23T02:25:30;5.57;;;1.60;;
12356;SDS011;6243;51.244;6.774;2024-03-23T02:27:56;5.03;;;1.50;;
12356;SDS011;6243;51.244;6.774;2024-03-23T02:30:21;4.37;;;1.43;;
12356;SDS011;6243;51.244;6.774;2024-03-23T02:32:47;6.43;;;1.30;;
12356;SDS011;6243;51.244;6.774;2024-03-23T02:35:13;3.50;;;1.70;;
12356;SDS011;6243;51.244;6.774;2024-03-23T02:37:38;4.87;;;1.50;;
12356;SDS011;6243;51.244;6.774;2024-03-23T02:40:06;3.33;;;1.40;;
12356;SDS011;6243;51.244;6.774;2024-03-23T02:42:32;5.40;;;1.80;;
12356;SDS011;6243;51.244;6.774;2024-03-23T02:44:58;3.63;;;1.50;;
12356;SDS011;6243;51.244;6.774;2024-03-23T02:47:23;4.47;;;1.80;;
12356;SDS011;6243;51.244;6.774;2024-03-23T02:49:49;4.90;;;1.77;;
12356;SDS011;6243;51.244;6.774;2024-03-23T02:52:15;4.37;;;1.53;;
12356;SDS011;6243;51.244;6.774;2024-03-23T02:54:40;6.90;;;1.93;;
12356;SDS011;6243;51.244;6.774;2024-03-23T02:57:07;6.50;;;1.60;;
12356;SDS011;6243;51.244;6.774;2024-03-23T02:59:33;7.07;;;1.93;;
12356;SDS011;6243;51.244;6.774;2024-03-23T03:01:59;5.43;;;1.93;;
12356;SDS011;6243;51.244;6.774;2024-03-23T03:04:24;4.83;;;1.87;;
12356;SDS011;6243;51.244;6.774;2024-03-23T03:06:50;3.43;;;1.70;;
12356;SDS011;6243;51.244;6.774;2024-03-23T03:09:15;4.67;;;1.70;;
12356;SDS011;6243;51.244;6.774;2024-03-23T03:11:41;6.37;;;2.00;;
12356;SDS011;6243;51.244;6.774;2024-03-23T03:14:08;3.50;;;1.70;;
12356;SDS011;6243;51.244;6.774;2024-03-23T03:16:34;3.90;;;1.70;;
12356;SDS011;6243;51.244;6.774;2024-03-23T03:18:59;6.10;;;2.27;;
12356;SDS011;6243;51.244;6.774;2024-03-23T03:21:25;5.33;;;1.70;;
12356;SDS011;6243;51.244;6.774;2024-03-23T03:23:51;2.53;;;1.70;;
12356;SDS011;6243;51.244;6.774;2024-03-23T03:26:16;5.90;;;2.23;;
12356;SDS011;6243;51.244;6.774;2024-03-23T03:28:42;4.70;;;1.87;;
12356;SDS011;6243;51.244;6.774;2024-03-23T03:31:10;7.63;;;2.30;;
12356;SDS011;6243;51.244;6.774;2024-03-23T03:33:35;5.50;;;1.87;;
12356;SDS011;6243;51.244;6.774;2024-03-23T03:36:01;9.27;;;2.30;;
12356;SDS011;6243;51.244;6.774;2024-03-23T03:38:27;3.13;;;1.97;;
12356;SDS011;6243;51.244;6.774;2024-03-23T03:40:52;3.87;;;2.10;;
12356;SDS011;6243;51.244;6.774;2024-03-23T03:43:18;5.20;;;1.70;;
12356;SDS011;6243;51.244;6.774;2024-03-23T03:45:50;6.57;;;2.20;;
12356;SDS011;6243;51.244;6.774;2024-03-23T03:48:18;4.37;;;1.60;;
12356;SDS011;6243;51.244;6.774;2024-03-23T03:50:43;7.03;;;1.90;;
12356;SDS011;6243;51.244;6.774;2024-03-23T03:53:09;8.33;;;2.00;;
12356;SDS011;6243;51.244;6.774;2024-03-23T03:55:35;7.13;;;2.00;;
12356;SDS011;6243;51.244;6.774;2024-03-23T03:58:00;5.37;;;2.27;;
12356;SDS011;6243;51.244;6.774;2024-03-23T04:00:26;5.10;;;1.60;;
12356;SDS011;6243;51.244;6.774;2024-03-23T04:02:52;5.27;;;1.93;;
12356;SDS011;6243;51.244;6.774;2024-03-23T04:05:19;4.83;;;1.93;;
12356;SDS011;6243;51.244;6.774;2024-03-23T04:07:44;5.63;;;2.00;;
12356;SDS011;6243;51.244;6.774;2024-03-23T04:10:10;5.73;;;2.17;;
12356;SDS011;6243;51.244;6.774;2024-03-23T04:12:36;6.93;;;2.00;;
12356;SDS011;6243;51.244;6.774;2024-03-23T04:15:02;6.27;;;2.50;;
12356;SDS011;6243;51.244;6.774;2024-03-23T04:17:28;3.63;;;2.27;;
12356;SDS011;6243;51.244;6.774;2024-03-23T04:19:54;8.27;;;1.90;;
12356;SDS011;6243;51.244;6.774;2024-03-23T04:22:22;4.37;;;2.10;;
12356;SDS011;6243;51.244;6.774;2024-03-23T04:24:48;9.07;;;2.40;;
12356;SDS011;6243;51.244;6.774;2024-03-23T04:27:14;6.53;;;2.23;;
12356;SDS011;6243;51.244;6.774;2024-03-23T04:29:40;6.07;;;2.27;;
12356;SDS011;6243;51.244;6.774;2024-03-23T04:32:05;7.10;;;2.03;;
12356;SDS011;6243;51.244;6.774;2024-03-23T04:34:31;7.87;;;2.13;;
12356;SDS011;6243;51.244;6.774;2024-03-23T04:36:57;7.23;;;2.23;;
12356;SDS011;6243;51.244;6.774;2024-03-23T04:39:24;5.10;;;1.90;;
12356;SDS011;6243;51.244;6.774;2024-03-23T04:41:50;4.73;;;2.40;;
12356;SDS011;6243;51.244;6.774;2024-03-23T04:44:16;6.33;;;2.63;;
12356;SDS011;6243;51.244;6.774;2024-03-23T04:46:41;8.83;;;2.50;;
12356;SDS011;6243;51.244;6.774;2024-03-23T04:49:07;6.07;;;2.57;;
12356;SDS011;6243;51.244;6.774;2024-03-23T04:51:35;5.77;;;2.70;;
12356;SDS011;6243;51.244;6.774;2024-03-23T04:54:01;5.90;;;2.47;;
12356;SDS011;6243;51.244;6.774;2024-03-23T04:56:28;8.80;;;3.13;;
12356;SDS011;6243;51.244;6.774;2024-03-23T04:58:53;7.10;;;2.90;;
12356;SDS011;6243;51.244;6.774;2024-03-23T05:01:19;7.97;;;3.20;;
12356;SDS011;6243;51.244;6.774;2024-03-23T05:03:45;8.50;;;2.80;;
12356;SDS011;6243;51.244;6.774;2024-03-23T05:06:10;6.43;;;2.73;;
12356;SDS011;6243;51.244;6.774;2024-03-23T05:08:36;8.27;;;2.87;;
12356;SDS011;6243;51.244;6.774;2024-03-23T05:11:02;8.60;;;3.10;;
12356;SDS011;6243;51.244;6.774;2024-03-23T05:13:29;7.57;;;3.67;;
12356;SDS011;6243;51.244;6.774;2024-03-23T05:15:54;10.03;;;3.20;;
12356;SDS011;6243;51.244;6.774;2024-03-23T05:18:20;8.57;;;2.53;;
12356;SDS011;6243;51.244;6.774;2024-03-23T05:20:46;7.87;;;2.87;;
12356;SDS011;6243;51.244;6.774;2024-03-23T05:23:12;7.53;;;2.40;;
12356;SDS011;6243;51.244;6.774;2024-03-23T05:25:37;5.80;;;2.50;;
12356;SDS011;6243;51.244;6.774;2024-03-23T05:28:03;10.60;;;2.87;;
12356;SDS011;6243;51.244;6.774;2024-03-23T05:30:30;5.40;;;2.50;;
12356;SDS011;6243;51.244;6.774;2024-03-23T05:32:56;6.53;;;2.37;;
12356;SDS011;6243;51.244;6.774;2024-03-23T05:35:22;7.47;;;2.60;;
12356;SDS011;6243;51.244;6.774;2024-03-23T05:37:47;11.53;;;2.83;;
12356;SDS011;6243;51.244;6.774;2024-03-23T05:40:13;7.93;;;2.60;;
12356;SDS011;6243;51.244;6.774;2024-03-23T05:42:39;5.57;;;2.40;;
12356;SDS011;6243;51.244;6.774;2024-03-23T05:45:05;9.40;;;3.20;;
12356;SDS011;6243;51.244;6.774;2024-03-23T05:47:32;8.00;;;2.60;;
12356;SDS011;6243;51.244;6.774;2024-03-23T05:49:58;5.40;;;2.33;;
12356;SDS011;6243;51.244;6.774;2024-03-23T05:52:23;8.03;;;3.07;;
12356;SDS011;6243;51.244;6.774;2024-03-23T05:54:49;6.77;;;2.97;;
12356;SDS011;6243;51.244;6.774;2024-03-23T05:57:14;8.27;;;2.77;;
12356;SDS011;6243;51.244;6.774;2024-03-23T05:59:40;6.37;;;2.60;;
12356;SDS011;6243;51.244;6.774;2024-03-23T06:02:06;9.67;;;3.37;;
12356;SDS011;6243;51.244;6.774;2024-03-23T06:04:33;11.70;;;4.20;;
12356;SDS011;6243;51.244;6.774;2024-03-23T06:06:58;6.67;;;3.13;;
12356;SDS011;6243;51.244;6.774;2024-03-23T06:09:24;5.53;;;3.00;;
12356;SDS011;6243;51.244;6.774;2024-03-23T06:11:50;6.63;;;3.30;;
12356;SDS011;6243;51.244;6.774;2024-03-23T06:14:15;6.87;;;3.37;;
12356;SDS011;6243;51.244;6.774;2024-03-23T06:16:41;8.47;;;3.47;;
12356;SDS011;6243;51.244;6.774;2024-03-23T06:19:06;12.27;;;3.97;;
12356;SDS011;6243;51.244;6.774;2024-03-23T06:21:33;8.77;;;4.00;;
12356;SDS011;6243;51.244;6.774;2024-03-23T06:23:59;10.97;;;4.20;;
12356;SDS011;6243;51.244;6.774;2024-03-23T06:26:25;7.33;;;3.70;;
12356;SDS011;6243;51.244;6.774;2024-03-23T06:28:51;9.70;;;4.00;;
12356;SDS011;6243;51.244;6.774;2024-03-23T06:31:17;12.90;;;3.47;;
12356;SDS011;6243;51.244;6.774;2024-03-23T06:33:42;9.30;;;3.63;;
12356;SDS011;6243;51.244;6.774;2024-03-23T06:36:09;7.00;;;3.83;;
12356;SDS011;6243;51.244;6.774;2024-03-23T06:38:36;7.77;;;3.50;;
12356;SDS011;6243;51.244;6.774;2024-03-23T06:41:02;10.57;;;4.00;;
12356;SDS011;6243;51.244;6.774;2024-03-23T06:43:28;10.63;;;4.57;;
12356;SDS011;6243;51.244;6.774;2024-03-23T06:45:54;9.17;;;4.43;;
12356;SDS011;6243;51.244;6.774;2024-03-23T06:48:20;8.63;;;4.27;;
12356;SDS011;6243;51.244;6.774;2024-03-23T06:50:45;10.13;;;4.30;;
12356;SDS011;6243;51.244;6.774;2024-03-23T06:53:11;12.23;;;5.03;;
12356;SDS011;6243;51.244;6.774;2024-03-23T06:55:38;10.47;;;5.23;;
12356;SDS011;6243;51.244;6.774;2024-03-23T06:58:04;11.43;;;5.00;;
12356;SDS011;6243;51.244;6.774;2024-03-23T07:00:30;9.27;;;4.83;;
12356;SDS011;6243;51.244;6.774;2024-03-23T07:02:55;13.47;;;5.43;;
12356;SDS011;6243;51.244;6.774;2024-03-23T07:05:21;14.03;;;5.57;;
12356;SDS011;6243;51.244;6.774;2024-03-23T07:07:47;9.27;;;4.77;;
12356;SDS011;6243;51.244;6.774;2024-03-23T07:10:12;11.17;;;5.27;;
12356;SDS011;6243;51.244;6.774;2024-03-23T07:12:40;14.23;;;4.93;;
12356;SDS011;6243;51.244;6.774;2024-03-23T07:15:06;11.23;;;5.03;;
12356;SDS011;6243;51.244;6.774;2024-03-23T07:17:32;10.77;;;4.23;;
12356;SDS011;6243;51.244;6.774;2024-03-23T07:19:58;12.13;;;5.20;;
12356;SDS011;6243;51.244;6.774;2024-03-23T07:22:23;13.40;;;5.50;;
12356;SDS011;6243;51.244;6.774;2024-03-23T07:24:49;11.90;;;4.53;;
12356;SDS011;6243;51.244;6.774;2024-03-23T07:27:15;10.33;;;4.90;;
12356;SDS011;6243;51.244;6.774;2024-03-23T07:29:42;15.10;;;5.50;;
12356;SDS011;6243;51.244;6.774;2024-03-23T07:32:07;12.27;;;4.30;;
12356;SDS011;6243;51.244;6.774;2024-03-23T07:34:33;10.43;;;4.50;;
12356;SDS011;6243;51.244;6.774;2024-03-23T07:36:59;11.30;;;4.43;;
12356;SDS011;6243;51.244;6.774;2024-03-23T07:39:24;10.50;;;3.80;;
12356;SDS011;6243;51.244;6.774;2024-03-23T07:41:50;13.03;;;4.60;;
12356;SDS011;6243;51.244;6.774;2024-03-23T07:44:15;9.43;;;4.53;;
12356;SDS011;6243;51.244;6.774;2024-03-23T07:46:42;14.43;;;4.00;;
12356;SDS011;6243;51.244;6.774;2024-03-23T07:49:08;11.37;;;4.53;;
12356;SDS011;6243;51.244;6.774;2024-03-23T07:51:34;10.93;;;4.10;;
12356;SDS011;6243;51.244;6.774;2024-03-23T07:53:59;10.33;;;4.13;;
12356;SDS011;6243;51.244;6.774;2024-03-23T07:56:25;9.77;;;4.03;;
12356;SDS011;6243;51.244;6.774;2024-03-23T07:58:51;9.47;;;4.33;;
12356;SDS011;6243;51.244;6.774;2024-03-23T08:01:17;12.40;;;4.20;;
12356;SDS011;6243;51.244;6.774;2024-03-23T08:03:44;9.70;;;4.60;;
12356;SDS011;6243;51.244;6.774;2024-03-23T08:06:11;7.93;;;4.43;;
12356;SDS011;6243;51.244;6.774;2024-03-23T08:08:37;9.73;;;4.43;;
12356;SDS011;6243;51.244;6.774;2024-03-23T08:11:03;9.83;;;3.77;;
12356;SDS011;6243;51.244;6.774;2024-03-23T08:13:30;10.53;;;4.40;;
12356;SDS011;6243;51.244;6.774;2024-03-23T08:15:56;11.63;;;4.10;;
12356;SDS011;6243;51.244;6.774;2024-03-23T08:18:22;8.07;;;3.63;;
12356;SDS011;6243;51.244;6.774;2024-03-23T08:20:51;8.10;;;4.07;;
12356;SDS011;6243;51.244;6.774;2024-03-23T08:23:20;9.03;;;3.83;;
12356;SDS011;6243;51.244;6.774;2024-03-23T08:25:46;9.57;;;3.90;;
12356;SDS011;6243;51.244;6.774;2024-03-23T08:28:12;7.47;;;3.20;;
12356;SDS011;6243;51.244;6.774;2024-03-23T08:30:38;8.30;;;3.30;;
12356;SDS011;6243;51.244;6.774;2024-03-23T08:33:04;5.77;;;2.83;;
12356;SDS011;6243;51.244;6.774;2024-03-23T08:35:29;6.73;;;2.77;;
12356;SDS011;6243;51.244;6.774;2024-03-23T08:37:56;8.17;;;3.30;;
12356;SDS011;6243;51.244;6.774;2024-03-23T08:40:22;8.33;;;3.43;;
12356;SDS011;6243;51.244;6.774;2024-03-23T08:42:48;8.40;;;3.40;;
12356;SDS011;6243;51.244;6.774;2024-03-23T08:45:13;9.63;;;3.23;;
12356;SDS011;6243;51.244;6.774;2024-03-23T08:47:39;8.00;;;3.23;;
12356;SDS011;6243;51.244;6.774;2024-03-23T08:50:05;7.60;;;2.90;;
12356;SDS011;6243;51.244;6.774;2024-03-23T08:52:31;7.23;;;2.77;;
12356;SDS011;6243;51.244;6.774;2024-03-23T08:54:58;6.37;;;2.50;;
12356;SDS011;6243;51.244;6.774;2024-03-23T08:57:24;6.93;;;2.43;;
12356;SDS011;6243;51.244;6.774;2024-03-23T08:59:49;9.60;;;3.23;;
12356;SDS011;6243;51.244;6.774;2024-03-23T09:02:15;6.80;;;2.90;;
12356;SDS011;6243;51.244;6.774;2024-03-23T09:04:41;7.23;;;2.90;;
12356;SDS011;6243;51.244;6.774;2024-03-23T09:07:06;7.43;;;3.33;;
12356;SDS011;6243;51.244;6.774;2024-03-23T09:09:32;5.47;;;2.97;;
12356;SDS011;6243;51.244;6.774;2024-03-23T09:11:59;6.30;;;2.90;;
12356;SDS011;6243;51.244;6.774;2024-03-23T09:14:25;7.67;;;2.80;;
12356;SDS011;6243;51.244;6.774;2024-03-23T09:16:50;7.27;;;2.77;;
12356;SDS011;6243;51.244;6.774;2024-03-23T09:19:16;8.90;;;3.13;;
12356;SDS011;6243;51.244;6.774;2024-03-23T09:21:42;7.87;;;2.63;;
12356;SDS011;6243;51.244;6.774;2024-03-23T09:24:08;6.43;;;2.93;;
12356;SDS011;6243;51.244;6.774;2024-03-23T09:26:33;7.53;;;2.87;;
12356;SDS011;6243;51.244;6.774;2024-03-23T09:29:01;5.93;;;3.43;;
12356;SDS011;6243;51.244;6.774;2024-03-23T09:31:26;6.47;;;3.20;;
12356;SDS011;6243;51.244;6.774;2024-03-23T09:33:52;7.03;;;3.33;;
12356;SDS011;6243;51.244;6.774;2024-03-23T09:36:18;7.23;;;2.77;;
12356;SDS011;6243;51.244;6.774;2024-03-23T09:38:43;8.40;;;3.10;;
12356;SDS011;6243;51.244;6.774;2024-03-23T09:41:09;6.20;;;2.73;;
12356;SDS011;6243;51.244;6.774;2024-03-23T09:43:34;9.17;;;3.10;;
12356;SDS011;6243;51.244;6.774;2024-03-23T09:46:02;7.60;;;3.23;;
12356;SDS011;6243;51.244;6.774;2024-03-23T09:48:28;4.63;;;3.00;;
12356;SDS011;6243;51.244;6.774;2024-03-23T09:50:54;5.27;;;2.60;;
12356;SDS011;6243;51.244;6.774;2024-03-23T09:53:20;5.97;;;3.20;;
12356;SDS011;6243;51.244;6.774;2024-03-23T09:55:45;6.60;;;2.70;;
12356;SDS011;6243;51.244;6.774;2024-03-23T09:58:12;7.07;;;2.90;;
12356;SDS011;6243;51.244;6.774;2024-03-23T10:00:38;4.70;;;2.60;;
12356;SDS011;6243;51.244;6.774;2024-03-23T10:03:07;4.53;;;3.23;;
12356;SDS011;6243;51.244;6.774;2024-03-23T10:05:33;4.67;;;2.70;;
12356;SDS011;6243;51.244;6.774;2024-03-23T10:07:59;4.07;;;2.63;;
12356;SDS011;6243;51.244;6.774;2024-03-23T10:10:24;5.20;;;2.53;;
12356;SDS011;6243;51.244;6.774;2024-03-23T10:12:50;3.40;;;2.10;;
12356;SDS011;6243;51.244;6.774;2024-03-23T10:15:19;5.53;;;2.30;;
12356;SDS011;6243;51.244;6.774;2024-03-23T10:17:45;5.23;;;2.20;;
12356;SDS011;6243;51.244;6.774;2024-03-23T10:20:13;7.00;;;2.77;;
12356;SDS011;6243;51.244;6.774;2024-03-23T10:22:43;4.40;;;1.93;;
12356;SDS011;6243;51.244;6.774;2024-03-23T10:25:09;2.80;;;1.63;;
12356;SDS011;6243;51.244;6.774;2024-03-23T10:27:36;3.63;;;1.67;;
12356;SDS011;6243;51.244;6.774;2024-03-23T10:30:08;4.83;;;1.50;;
12356;SDS011;6243;51.244;6.774;2024-03-23T10:32:34;5.50;;;1.67;;
12356;SDS011;6243;51.244;6.774;2024-03-23T10:35:14;3.00;;;1.80;;
12356;SDS011;6243;51.244;6.774;2024-03-23T10:37:41;5.27;;;1.87;;
12356;SDS011;6243;51.244;6.774;2024-03-23T10:40:07;4.30;;;1.60;;
12356;SDS011;6243;51.244;6.774;2024-03-23T10:42:36;4.17;;;1.60;;
12356;SDS011;6243;51.244;6.774;2024-03-23T10:45:04;2.67;;;1.20;;
12356;SDS011;6243;51.244;6.774;2024-03-23T10:47:30;2.40;;;1.33;;
12356;SDS011;6243;51.244;6.774;2024-03-23T10:49:56;1.53;;;1.07;;
12356;SDS011;6243;51.244;6.774;2024-03-23T10:52:23;1.20;;;0.77;;
12356;SDS011;6243;51.244;6.774;2024-03-23T10:54:49;2.23;;;1.40;;
12356;SDS011;6243;51.244;6.774;2024-03-23T10:57:17;0.83;;;0.67;;
12356;SDS011;6243;51.244;6.774;2024-03-23T10:59:45;2.30;;;1.17;;
12356;SDS011;6243;51.244;6.774;2024-03-23T11:02:18;1.67;;;0.80;;
12356;SDS011;6243;51.244;6.774;2024-03-23T11:04:44;1.87;;;1.00;;
12356;SDS011;6243;51.244;6.774;2024-03-23T11:09:55;2.67;;;0.57;;
12356;SDS011;6243;51.244;6.774;2024-03-23T11:12:27;1.90;;;0.40;;
12356;SDS011;6243;51.244;6.774;2024-03-23T11:14:57;2.00;;;0.90;;
12356;SDS011;6243;51.244;6.774;2024-03-23T11:17:26;1.40;;;1.13;;
12356;SDS011;6243;51.244;6.774;2024-03-23T11:19:53;2.97;;;0.97;;
12356;SDS011;6243;51.244;6.774;2024-03-23T11:25:12;1.07;;;0.97;;
12356;SDS011;6243;51.244;6.774;2024-03-23T11:27:41;2.33;;;1.30;;
12356;SDS011;6243;51.244;6.774;2024-03-23T11:30:12;1.87;;;1.13;;
12356;SDS011;6243;51.244;6.774;2024-03-23T11:32:39;1.50;;;1.00;;
12356;SDS011;6243;51.244;6.774;2024-03-23T11:35:05;2.63;;;1.20;;
12356;SDS011;6243;51.244;6.774;2024-03-23T11:37:31;1.80;;;1.03;;
12356;SDS011;6243;51.244;6.774;2024-03-23T11:39:58;2.50;;;1.57;;
12356;SDS011;6243;51.244;6.774;2024-03-23T11:42:23;2.63;;;1.40;;
12356;SDS011;6243;51.244;6.774;2024-03-23T11:44:49;2.93;;;1.60;;
12356;SDS011;6243;51.244;6.774;2024-03-23T11:47:14;3.27;;;1.83;;
12356;SDS011;6243;51.244;6.774;2024-03-23T11:49:40;3.97;;;1.80;;
12356;SDS011;6243;51.244;6.774;2024-03-23T11:52:06;2.10;;;1.27;;
12356;SDS011;6243;51.244;6.774;2024-03-23T11:54:32;1.17;;;0.70;;
12356;SDS011;6243;51.244;6.774;2024-03-23T11:56:59;1.03;;;0.53;;
12356;SDS011;6243;51.244;6.774;2024-03-23T11:59:34;1.70;;;0.63;;
12356;SDS011;6243;51.244;6.774;2024-03-23T12:02:05;0.63;;;0.50;;
12356;SDS011;6243;51.244;6.774;2024-03-23T12:04:32;1.53;;;0.53;;
12356;SDS011;6243;51.244;6.774;2024-03-23T12:07:10;0.97;;;0.80;;
12356;SDS011;6243;51.244;6.774;2024-03-23T12:09:39;1.97;;;0.80;;
12356;SDS011;6243;51.244;6.774;2024-03-23T12:12:07;1.00;;;0.77;;
12356;SDS011;6243;51.244;6.774;2024-03-23T12:14:33;1.67;;;1.10;;
12356;SDS011;6243;51.244;6.774;2024-03-23T12:17:07;1.10;;;0.93;;
12356;SDS011;6243;51.244;6.774;2024-03-23T12:19:33;0.50;;;0.50;;
12356;SDS011;6243;51.244;6.774;2024-03-23T12:21:59;0.93;;;0.87;;
12356;SDS011;6243;51.244;6.774;2024-03-23T12:24:24;3.90;;;1.23;;
12356;SDS011;6243;51.244;6.774;2024-03-23T12:26:51;2.37;;;1.70;;
12356;SDS011;6243;51.244;6.774;2024-03-23T12:29:18;4.80;;;1.50;;
12356;SDS011;6243;51.244;6.774;2024-03-23T12:31:43;3.80;;;1.50;;
12356;SDS011;6243;51.244;6.774;2024-03-23T12:34:09;2.50;;;1.73;;
12356;SDS011;6243;51.244;6.774;2024-03-23T12:36:34;4.83;;;1.43;;
12356;SDS011;6243;51.244;6.774;2024-03-23T12:39:00;2.87;;;1.20;;
12356;SDS011;6243;51.244;6.774;2024-03-23T12:41:26;2.10;;;1.17;;
12356;SDS011;6243;51.244;6.774;2024-03-23T12:43:51;2.50;;;1.40;;
12356;SDS011;6243;51.244;6.774;2024-03-23T12:46:18;1.40;;;1.00;;
12356;SDS011;6243;51.244;6.774;2024-03-23T12:48:44;2.87;;;1.30;;
12356;SDS011;6243;51.244;6.774;2024-03-23T12:51:10;2.73;;;1.60;;
12356;SDS011;6243;51.244;6.774;2024-03-23T12:53:35;2.97;;;1.33;;
12356;SDS011;6243;51.244;6.774;2024-03-23T12:56:00;1.00;;;0.90;;
12356;SDS011;6243;51.244;6.774;2024-03-23T12:58:26;3.57;;;1.13;;
12356;SDS011;6243;51.244;6.774;2024-03-23T13:00:52;1.63;;;1.40;;
12356;SDS011;6243;51.244;6.774;2024-03-23T13:03:19;4.27;;;1.40;;
12356;SDS011;6243;51.244;6.774;2024-03-23T13:05:46;2.67;;;1.03;;
12356;SDS011;6243;51.244;6.774;2024-03-23T13:08:16;4.50;;;1.67;;
12356;SDS011;6243;51.244;6.774;2024-03-23T13:10:42;1.80;;;0.87;;
12356;SDS011;6243;51.244;6.774;2024-03-23T13:13:08;2.57;;;0.80;;
12356;SDS011;6243;51.244;6.774;2024-03-23T13:15:33;0.60;;;0.30;;
12356;SDS011;6243;51.244;6.774;2024-03-23T13:17:59;1.53;;;0.70;;
12356;SDS011;6243;51.244;6.774;2024-03-23T13:20:26;1.17;;;0.70;;
12356;SDS011;6243;51.244;6.774;2024-03-23T13:22:51;2.93;;;1.23;;
12356;SDS011;6243;51.244;6.774;2024-03-23T13:25:17;2.00;;;1.30;;
12356;SDS011;6243;51.244;6.774;2024-03-23T13:27:42;4.87;;;1.00;;
12356;SDS011;6243;51.244;6.774;2024-03-23T13:30:08;0.70;;;0.63;;
12356;SDS011;6243;51.244;6.774;2024-03-23T13:32:35;2.83;;;0.80;;
12356;SDS011;6243;51.244;6.774;2024-03-23T13:35:00;2.47;;;1.00;;
12356;SDS011;6243;51.244;6.774;2024-03-23T13:37:27;2.00;;;0.90;;
12356;SDS011;6243;51.244;6.774;2024-03-23T13:39:53;2.77;;;0.80;;
12356;SDS011;6243;51.244;6.774;2024-03-23T13:42:18;0.80;;;0.80;;
12356;SDS011;6243;51.244;6.774;2024-03-23T13:44:44;1.90;;;1.03;;
12356;SDS011;6243;51.244;6.774;2024-03-23T13:47:09;1.93;;;0.90;;
12356;SDS011;6243;51.244;6.774;2024-03-23T13:49:35;2.67;;;0.87;;
12356;SDS011;6243;51.244;6.774;2024-03-23T13:52:00;2.50;;;1.30;;
12356;SDS011;6243;51.244;6.774;2024-03-23T13:54:27;2.00;;;0.77;;
12356;SDS011;6243;51.244;6.774;2024-03-23T13:56:53;2.87;;;1.13;;
12356;SDS011;6243;51.244;6.774;2024-03-23T13:59:20;3.60;;;1.17;;
12356;SDS011;6243;51.244;6.774;2024-03-23T14:01:45;1.47;;;0.97;;
12356;SDS011;6243;51.244;6.774;2024-03-23T14:04:11;4.07;;;1.30;;
12356;SDS011;6243;51.244;6.774;2024-03-23T14:06:37;2.33;;;1.10;;
12356;SDS011;6243;51.244;6.774;2024-03-23T14:09:02;4.80;;;1.60;;
12356;SDS011;6243;51.244;6.774;2024-03-23T14:11:29;1.90;;;1.10;;
12356;SDS011;6243;51.244;6.774;2024-03-23T14:13:55;3.80;;;1.53;;
12356;SDS011;6243;51.244;6.774;2024-03-23T14:16:20;1.53;;;1.00;;
12356;SDS011;6243;51.244;6.774;2024-03-23T14:18:46;5.17;;;1.90;;
12356;SDS011;6243;51.244;6.774;2024-03-23T14:21:12;2.53;;;1.23;;
12356;SDS011;6243;51.244;6.774;2024-03-23T14:23:37;4.13;;;1.50;;
12356;SDS011;6243;51.244;6.774;2024-03-23T14:26:03;5.63;;;1.77;;
12356;SDS011;6243;51.244;6.774;2024-03-23T14:28:30;4.97;;;1.43;;
12356;SDS011;6243;51.244;6.774;2024-03-23T14:30:55;1.63;;;1.00;;
12356;SDS011;6243;51.244;6.774;2024-03-23T14:33:21;1.77;;;0.70;;
12356;SDS011;6243;51.244;6.774;2024-03-23T14:35:51;1.00;;;0.67;;
12356;SDS011;6243;51.244;6.774;2024-03-23T14:38:17;1.13;;;0.80;;
12356;SDS011;6243;51.244;6.774;2024-03-23T14:40:42;1.90;;;0.80;;
12356;SDS011;6243;51.244;6.774;2024-03-23T14:43:08;1.20;;;0.87;;
12356;SDS011;6243;51.244;6.774;2024-03-23T14:45:35;0.70;;;0.60;;
12356;SDS011;6243;51.244;6.774;2024-03-23T14:48:00;1.73;;;0.90;;
12356;SDS011;6243;51.244;6.774;2024-03-23T14:50:26;1.00;;;0.67;;
12356;SDS011;6243;51.244;6.774;2024-03-23T14:52:51;2.00;;;0.87;;
12356;SDS011;6243;51.244;6.774;2024-03-23T14:55:17;1.53;;;0.63;;
12356;SDS011;6243;51.244;6.774;2024-03-23T14:57:43;0.87;;;0.80;;
12356;SDS011;6243;51.244;6.774;2024-03-23T15:00:08;1.20;;;1.00;;
12356;SDS011;6243;51.244;6.774;2024-03-23T15:02:36;2.60;;;1.20;;
12356;SDS011;6243;51.244;6.774;2024-03-23T15:05:02;1.50;;;1.30;;
12356;SDS011;6243;51.244;6.774;2024-03-23T15:07:27;1.73;;;0.97;;
12356;SDS011;6243;51.244;6.774;2024-03-23T15:09:53;1.30;;;1.00;;
12356;SDS011;6243;51.244;6.774;2024-03-23T15:12:18;3.50;;;1.60;;
12356;SDS011;6243;51.244;6.774;2024-03-23T15:14:44;1.83;;;1.03;;
12356;SDS011;6243;51.244;6.774;2024-03-23T15:17:10;1.47;;;1.00;;
12356;SDS011;6243;51.244;6.774;2024-03-23T15:19:37;3.70;;;1.30;;
12356;SDS011;6243;51.244;6.774;2024-03-23T15:22:03;3.33;;;1.20;;
12356;SDS011;6243;51.244;6.774;2024-03-23T15:24:28;1.87;;;1.00;;
12356;SDS011;6243;51.244;6.774;2024-03-23T15:26:54;2.17;;;1.00;;
12356;SDS011;6243;51.244;6.774;2024-03-23T15:29:20;1.87;;;1.10;;
12356;SDS011;6243;51.244;6.774;2024-03-23T15:31:46;1.63;;;0.80;;
12356;SDS011;6243;51.244;6.774;2024-03-23T15:34:11;1.47;;;1.10;;
12356;SDS011;6243;51.244;6.774;2024-03-23T15:36:38;3.10;;;1.27;;
12356;SDS011;6243;51.244;6.774;2024-03-23T15:39:04;1.93;;;0.80;;
12356;SDS011;6243;51.244;6.774;2024-03-23T15:41:29;2.03;;;1.07;;
12356;SDS011;6243;51.244;6.774;2024-03-23T15:43:55;2.90;;;1.40;;
12356;SDS011;6243;51.244;6.774;2024-03-23T15:46:20;2.30;;;1.00;;
12356;SDS011;6243;51.244;6.774;2024-03-23T15:48:46;2.90;;;1.30;;
12356;SDS011;6243;51.244;6.774;2024-03-23T15:51:11;1.53;;;0.90;;
12356;SDS011;6243;51.244;6.774;2024-03-23T15:53:39;3.77;;;1.30;;